Etusivu
METAR-TAF:

METAR-TAF

Lentoasemat :

Fremont Municipal Airport

Fremont, Nebraska, Yhdysvallat

Leveyspiiri: 41-27N, Pituuspiiri: 096-31W, korkeus merenpinnasta: 379 m

Tämänhetkinen sää

Tämä raportti tehtiin 24 minuuttia sitten, kello 12.15 UTC
tyyntä
Lämpötila 0°C
Kosteus 80%
Ilmanpaine 1026 hPa
Näkyvyys: 16.1 km
selkeää

METAR: KFET 151215Z AUTO 00000KT 10SM CLR 00/M03 A3029 RMK AO2 T00011029

Aika: 06:39 (12:39 UTC)


TAF: puuttuu

Säähavainnot ja -ennusteet yli 4000 lentoasemalta (METAR- ja TAF-raportit).

Käytössä olevat sääasemat on merkitty karttaan keltaisilla ja punaisilla pisteillä.

Aseta hiiri pisteen päälle nähdäksesi sääaseman nimen.

Klikkaa sitten nähdäksesi säähavainnot ja -ennusteet.

Kartan vaihtaminen: klikkaa mustalla rastilla varustettuja vihreitä pisteitä, niin voit zoomata sisään; viivalla varustettua vihreää pistettä, niin voit zoomata ulos tai vihreitä nuolia, niin pääset viereisille kartoille.


METAR-TAF: